createdAt,value
2022-11-24T00:01:05.674Z,2.97
2022-11-24T00:03:35.065Z,3.07
2022-11-24T00:06:07.351Z,2.50
2022-11-24T00:08:37.027Z,3.03
2022-11-24T00:11:06.269Z,3.03
2022-11-24T00:13:34.900Z,3.03
2022-11-24T00:16:07.538Z,2.73
2022-11-24T00:18:35.770Z,2.77
2022-11-24T00:21:04.032Z,2.50
2022-11-24T00:23:32.294Z,2.87
2022-11-24T00:26:06.803Z,3.23
2022-11-24T00:28:35.588Z,2.97
2022-11-24T00:31:04.000Z,2.87
2022-11-24T00:33:32.330Z,3.37
2022-11-24T00:36:01.016Z,3.17
2022-11-24T00:38:29.346Z,3.00
2022-11-24T00:40:57.579Z,4.07
2022-11-24T00:43:27.198Z,2.60
2022-11-24T00:45:55.570Z,2.40
2022-11-24T00:48:24.152Z,2.97
2022-11-24T00:50:58.970Z,3.13
2022-11-24T00:53:27.616Z,3.03
2022-11-24T00:55:55.863Z,3.47
2022-11-24T00:58:24.588Z,3.13
2022-11-24T01:00:54.373Z,3.97
2022-11-24T01:03:22.950Z,2.90
2022-11-24T01:05:51.185Z,3.33
2022-11-24T01:08:19.441Z,2.80
2022-11-24T01:10:47.677Z,3.33
2022-11-24T01:13:15.898Z,3.37
2022-11-24T01:15:44.167Z,2.53
2022-11-24T01:18:13.810Z,3.23
2022-11-24T01:20:42.006Z,3.00
2022-11-24T01:23:10.219Z,4.03
2022-11-24T01:25:41.306Z,3.37
2022-11-24T01:28:09.523Z,3.07
2022-11-24T01:30:37.871Z,3.20
2022-11-24T01:33:06.174Z,3.67
2022-11-24T01:35:35.754Z,3.73
2022-11-24T01:38:03.987Z,3.20
2022-11-24T01:40:32.211Z,3.57
2022-11-24T01:43:00.423Z,3.37
2022-11-24T01:45:31.809Z,3.33
2022-11-24T01:48:00.774Z,3.53
2022-11-24T01:50:29.023Z,3.87
2022-11-24T01:52:58.834Z,3.23
2022-11-24T01:55:28.788Z,4.23
2022-11-24T01:57:58.774Z,3.40
2022-11-24T02:00:27.294Z,3.00
2022-11-24T02:02:55.590Z,4.60
2022-11-24T02:05:26.087Z,3.77
2022-11-24T02:07:55.287Z,3.47
2022-11-24T02:10:25.117Z,3.33
2022-11-24T02:12:53.983Z,3.90
2022-11-24T02:15:22.604Z,4.03
2022-11-24T02:17:50.875Z,3.03
2022-11-24T02:20:19.387Z,3.10
2022-11-24T02:22:51.541Z,4.30
2022-11-24T02:25:25.472Z,4.23
2022-11-24T02:27:56.354Z,3.90
2022-11-24T02:30:24.795Z,3.87
2022-11-24T02:32:53.384Z,3.60
2022-11-24T02:35:22.151Z,3.00
2022-11-24T02:37:50.420Z,4.27
2022-11-24T02:40:24.797Z,3.80
2022-11-24T02:42:55.283Z,3.17
2022-11-24T02:45:23.913Z,3.83
2022-11-24T02:47:52.164Z,4.20
2022-11-24T02:50:20.529Z,3.43
2022-11-24T02:52:48.767Z,3.90
2022-11-24T02:55:17.118Z,3.50
2022-11-24T02:57:45.330Z,3.67
2022-11-24T03:00:15.697Z,3.33
2022-11-24T03:02:44.006Z,3.57
2022-11-24T03:05:12.951Z,3.83
2022-11-24T03:07:41.262Z,3.30
2022-11-24T03:10:09.862Z,4.40
2022-11-24T03:12:38.091Z,3.43
2022-11-24T03:15:06.960Z,3.10
2022-11-24T03:17:36.828Z,2.90
2022-11-24T03:20:05.619Z,4.00
2022-11-24T03:22:33.959Z,4.03
2022-11-24T03:25:02.167Z,3.70
2022-11-24T03:27:31.777Z,3.77
2022-11-24T03:30:00.327Z,4.10
2022-11-24T03:32:28.550Z,4.00
2022-11-24T03:34:58.149Z,3.93
2022-11-24T03:37:26.418Z,4.53
2022-11-24T03:39:54.654Z,5.33
2022-11-24T03:42:22.911Z,3.97
2022-11-24T03:44:51.120Z,4.67
2022-11-24T03:47:19.389Z,3.80
2022-11-24T03:49:47.718Z,4.10
2022-11-24T03:52:17.303Z,3.50
2022-11-24T03:54:47.687Z,4.33
2022-11-24T03:57:15.983Z,3.33
2022-11-24T03:59:44.215Z,4.23
2022-11-24T04:02:12.488Z,3.20
2022-11-24T04:04:40.762Z,4.10
2022-11-24T04:07:09.047Z,3.63
2022-11-24T04:09:38.842Z,3.07
2022-11-24T04:12:24.789Z,3.97
2022-11-24T04:14:52.942Z,4.00
2022-11-24T04:17:21.093Z,3.90
2022-11-24T04:19:49.248Z,4.33
2022-11-24T04:22:17.394Z,3.47
2022-11-24T04:24:46.885Z,4.37
2022-11-24T04:27:15.035Z,4.00
2022-11-24T04:29:43.183Z,3.97
2022-11-24T04:32:11.330Z,3.63
2022-11-24T04:34:39.511Z,3.77
2022-11-24T04:37:07.688Z,4.30
2022-11-24T04:39:35.905Z,4.67
2022-11-24T04:42:05.650Z,4.43
2022-11-24T04:44:34.272Z,4.13
2022-11-24T04:47:02.590Z,3.60
2022-11-24T04:49:30.897Z,3.30
2022-11-24T04:51:59.094Z,3.97
2022-11-24T04:54:27.250Z,3.33
2022-11-24T04:56:55.405Z,4.17
2022-11-24T04:59:24.883Z,3.67
2022-11-24T05:01:53.097Z,3.47
2022-11-24T05:04:21.427Z,3.70
2022-11-24T05:06:49.898Z,4.10
2022-11-24T05:09:18.850Z,4.27
2022-11-24T05:11:46.998Z,3.23
2022-11-24T05:14:15.156Z,3.03
2022-11-24T05:16:44.684Z,1.90
2022-11-24T05:19:13.106Z,2.50
2022-11-24T05:21:41.283Z,2.37
2022-11-24T05:24:09.720Z,1.90
2022-11-24T05:26:37.900Z,1.40
2022-11-24T05:29:06.056Z,1.60
2022-11-24T05:31:34.306Z,1.47
2022-11-24T05:34:03.829Z,1.70
2022-11-24T05:36:49.689Z,1.70
2022-11-24T05:39:17.900Z,1.77
2022-11-24T05:41:46.109Z,1.70
2022-11-24T05:44:14.269Z,1.30
2022-11-24T05:46:42.505Z,1.77
2022-11-24T05:49:12.080Z,1.57
2022-11-24T05:51:40.214Z,1.10
2022-11-24T05:54:08.388Z,1.17
2022-11-24T05:56:36.541Z,1.23
2022-11-24T05:59:09.587Z,1.37
2022-11-24T06:01:38.330Z,1.30
2022-11-24T06:04:06.620Z,1.50
2022-11-24T06:06:36.161Z,1.43
2022-11-24T06:09:04.850Z,1.50
2022-11-24T06:11:33.017Z,1.83
2022-11-24T06:14:01.208Z,1.70
2022-11-24T06:16:29.434Z,2.07
2022-11-24T06:18:57.665Z,2.20
2022-11-24T06:21:25.833Z,1.63
2022-11-24T06:23:55.356Z,1.83
2022-11-24T06:26:23.526Z,1.60
2022-11-24T06:28:51.680Z,2.10
2022-11-24T06:31:19.843Z,2.40
2022-11-24T06:33:48.252Z,1.67
2022-11-24T06:36:16.711Z,1.70
2022-11-24T06:38:45.045Z,1.90
2022-11-24T06:41:15.399Z,1.90
2022-11-24T06:43:43.561Z,1.70
2022-11-24T06:46:11.964Z,2.10
2022-11-24T06:48:40.278Z,2.37
2022-11-24T06:51:12.706Z,2.10
2022-11-24T06:53:41.469Z,1.90
2022-11-24T06:56:15.862Z,1.87
2022-11-24T06:58:47.036Z,1.87
2022-11-24T07:01:16.735Z,1.77
2022-11-24T07:03:44.974Z,2.47
2022-11-24T07:06:13.346Z,1.93
2022-11-24T07:08:41.519Z,2.47
2022-11-24T07:11:10.354Z,2.10
2022-11-24T07:13:38.552Z,2.07
2022-11-24T07:16:13.804Z,1.93
2022-11-24T07:18:42.154Z,2.87
2022-11-24T07:21:10.306Z,2.23
2022-11-24T07:23:38.767Z,2.60
2022-11-24T07:26:07.610Z,4.37
2022-11-24T07:28:36.578Z,2.90
2022-11-24T07:31:07.085Z,2.80
2022-11-24T07:33:36.626Z,2.97
2022-11-24T07:36:05.366Z,2.77
2022-11-24T07:38:34.123Z,3.30
2022-11-24T07:41:03.012Z,3.80
2022-11-24T07:43:32.712Z,2.40
2022-11-24T07:46:01.207Z,2.33
2022-11-24T07:48:29.499Z,2.60
2022-11-24T07:51:00.502Z,2.70
2022-11-24T07:53:28.695Z,3.57
2022-11-24T07:55:58.085Z,3.03
2022-11-24T07:58:31.887Z,2.70
2022-11-24T08:01:00.752Z,2.63
2022-11-24T08:03:29.288Z,2.83
2022-11-24T08:06:23.083Z,2.43
2022-11-24T08:08:47.735Z,2.23
2022-11-24T08:11:16.777Z,3.23
2022-11-24T08:13:45.148Z,2.93
2022-11-24T08:16:14.884Z,2.50
2022-11-24T08:18:43.562Z,2.50
2022-11-24T08:21:13.484Z,2.37
2022-11-24T08:23:41.976Z,2.23
2022-11-24T08:26:14.148Z,2.73
2022-11-24T08:28:42.553Z,2.43
2022-11-24T08:31:12.118Z,2.63
2022-11-24T08:33:40.257Z,2.07
2022-11-24T08:36:10.025Z,2.90
2022-11-24T08:38:38.452Z,2.80
2022-11-24T08:41:07.391Z,2.73
2022-11-24T08:43:36.941Z,2.73
2022-11-24T08:46:06.182Z,2.50
2022-11-24T08:48:34.818Z,2.43
2022-11-24T08:51:08.088Z,2.40
2022-11-24T08:53:36.355Z,2.40
2022-11-24T08:56:05.142Z,2.70
2022-11-24T08:58:33.693Z,2.03
2022-11-24T09:01:07.247Z,2.90
2022-11-24T09:03:35.443Z,2.50
2022-11-24T09:06:04.023Z,2.47
2022-11-24T09:08:32.186Z,2.27
2022-11-24T09:11:03.536Z,2.47
2022-11-24T09:13:31.759Z,2.90
2022-11-24T09:16:04.818Z,2.23
2022-11-24T09:18:34.506Z,2.27
2022-11-24T09:21:09.391Z,2.50
2022-11-24T09:23:37.908Z,2.43
2022-11-24T09:26:06.890Z,2.57
2022-11-24T09:28:35.052Z,2.03
2022-11-24T09:31:03.684Z,2.70
2022-11-24T09:33:31.857Z,2.37
2022-11-24T09:36:01.383Z,2.30
2022-11-24T09:38:29.619Z,2.17
2022-11-24T09:40:58.187Z,2.10
2022-11-24T09:43:35.179Z,2.37
2022-11-24T09:46:07.452Z,2.40
2022-11-24T09:48:38.259Z,2.60
2022-11-24T09:51:11.297Z,2.20
2022-11-24T09:53:40.833Z,2.37
2022-11-24T09:56:17.272Z,3.00
2022-11-24T09:58:48.231Z,2.60
2022-11-24T10:01:18.014Z,2.20
2022-11-24T10:03:47.519Z,2.60
2022-11-24T10:06:27.427Z,2.37
2022-11-24T10:09:10.483Z,2.10
2022-11-24T10:11:41.300Z,2.27
2022-11-24T10:14:21.777Z,2.40
2022-11-24T10:16:54.078Z,1.97
2022-11-24T10:19:37.045Z,2.73
2022-11-24T10:22:16.140Z,2.83
2022-11-24T10:25:02.942Z,2.20
2022-11-24T10:27:35.414Z,2.50
2022-11-24T10:30:03.870Z,2.60
2022-11-24T10:32:33.666Z,2.40
2022-11-24T10:35:04.702Z,2.10
2022-11-24T10:37:36.965Z,2.23
2022-11-24T10:40:17.179Z,2.40
2022-11-24T10:42:58.159Z,2.00
2022-11-24T10:45:28.279Z,2.47
2022-11-24T10:47:56.527Z,2.30
2022-11-24T10:50:25.934Z,2.77
2022-11-24T10:53:02.501Z,2.10
2022-11-24T10:55:45.539Z,2.60
2022-11-24T10:58:17.196Z,2.93
2022-11-24T11:00:45.335Z,2.73
2022-11-24T11:03:17.768Z,2.30
2022-11-24T11:05:49.417Z,2.67
2022-11-24T11:08:26.363Z,2.83
2022-11-24T11:11:13.627Z,2.33
2022-11-24T11:13:51.626Z,2.33
2022-11-24T11:16:32.220Z,3.13
2022-11-24T11:19:01.429Z,1.63
2022-11-24T11:21:31.000Z,2.63
2022-11-24T11:24:01.060Z,2.50
2022-11-24T11:26:37.324Z,1.90
2022-11-24T11:34:53.609Z,2.63
2022-11-24T11:37:22.581Z,2.93
2022-11-24T11:39:52.781Z,2.40
2022-11-24T11:43:00.103Z,2.30
2022-11-24T11:45:13.966Z,2.33
2022-11-24T11:47:43.854Z,1.90
2022-11-24T11:50:13.611Z,2.60
2022-11-24T11:52:47.552Z,2.00
2022-11-24T11:55:33.517Z,2.30
2022-11-24T11:58:08.275Z,2.30
2022-11-24T12:00:38.474Z,2.27
2022-11-24T12:03:25.770Z,2.50
2022-11-24T12:05:59.221Z,2.30
2022-11-24T12:08:49.572Z,3.33
2022-11-24T12:11:26.622Z,3.33
2022-11-24T12:14:03.051Z,3.30
2022-11-24T12:16:36.402Z,2.63
2022-11-24T12:19:17.476Z,3.20
2022-11-24T12:21:49.670Z,2.60
2022-11-24T12:24:20.558Z,3.17
2022-11-24T12:26:51.222Z,3.27
2022-11-24T12:29:40.351Z,2.37
2022-11-24T12:32:11.782Z,2.47
2022-11-24T12:34:46.098Z,2.47
2022-11-24T12:37:20.369Z,2.83
2022-11-24T12:39:53.964Z,2.90
2022-11-24T12:42:28.232Z,2.53
2022-11-24T12:45:13.133Z,3.00
2022-11-24T12:47:50.362Z,2.47
2022-11-24T12:50:20.122Z,2.67
2022-11-24T12:52:54.137Z,2.70
2022-11-24T12:55:26.022Z,2.50
2022-11-24T12:57:57.393Z,2.70
2022-11-24T13:00:29.197Z,3.07
2022-11-24T13:03:05.736Z,2.77
2022-11-24T13:05:37.110Z,3.00
2022-11-24T13:08:06.138Z,2.40
2022-11-24T13:13:27.903Z,2.07
2022-11-24T13:16:35.316Z,2.57
2022-11-24T13:19:02.436Z,3.07
2022-11-24T13:21:51.859Z,2.23
2022-11-24T13:24:24.558Z,2.60
2022-11-24T13:26:53.732Z,2.70
2022-11-24T13:29:33.482Z,2.97
2022-11-24T13:32:20.894Z,2.57
2022-11-24T13:35:04.458Z,2.40
2022-11-24T13:37:56.474Z,2.37
2022-11-24T13:40:45.933Z,2.70
2022-11-24T13:43:24.359Z,2.40
2022-11-24T13:45:54.830Z,2.40
2022-11-24T13:48:41.565Z,3.03
2022-11-24T13:51:10.907Z,2.77
2022-11-24T13:53:40.025Z,2.10
2022-11-24T13:56:24.587Z,3.27
2022-11-24T13:58:53.965Z,1.87
2022-11-24T14:01:24.180Z,2.63
2022-11-24T14:07:02.396Z,2.20
2022-11-24T14:09:35.861Z,2.93
2022-11-24T14:12:07.858Z,2.40
2022-11-24T14:14:36.292Z,2.97
2022-11-24T14:17:09.417Z,2.57
2022-11-24T14:19:37.557Z,2.40
2022-11-24T14:22:05.839Z,2.33
2022-11-24T14:24:39.730Z,2.97
2022-11-24T14:27:15.228Z,2.63
2022-11-24T14:29:54.507Z,2.10
2022-11-24T14:32:24.435Z,2.40
2022-11-24T14:34:54.038Z,2.10
2022-11-24T14:37:22.397Z,2.80
2022-11-24T14:39:50.586Z,2.17
2022-11-24T14:42:20.071Z,2.40
2022-11-24T14:44:49.988Z,2.27
2022-11-24T14:47:23.494Z,2.30
2022-11-24T14:49:57.687Z,2.63
2022-11-24T14:52:27.168Z,2.23
2022-11-24T14:54:56.584Z,2.60
2022-11-24T14:57:26.431Z,2.50
2022-11-24T15:00:18.599Z,2.43
2022-11-24T15:02:49.647Z,2.47
2022-11-24T15:05:19.467Z,2.60
2022-11-24T15:07:48.296Z,2.63
2022-11-24T15:10:21.233Z,2.37
2022-11-24T15:12:52.513Z,2.40
2022-11-24T15:15:21.738Z,2.70
2022-11-24T15:17:51.342Z,2.30
2022-11-24T15:20:23.104Z,2.40
2022-11-24T15:22:52.375Z,2.20
2022-11-24T15:25:31.179Z,2.07
2022-11-24T15:27:59.371Z,2.57
2022-11-24T15:30:27.883Z,2.90
2022-11-24T15:32:56.686Z,2.60
2022-11-24T15:35:26.796Z,2.43
2022-11-24T15:37:55.052Z,2.67
2022-11-24T15:40:23.340Z,2.27
2022-11-24T15:42:52.615Z,2.57
2022-11-24T15:45:21.394Z,2.40
2022-11-24T15:47:49.715Z,2.60
2022-11-24T15:50:18.160Z,2.90
2022-11-24T15:52:47.978Z,2.37
2022-11-24T15:55:19.135Z,2.97
2022-11-24T15:57:47.491Z,2.80
2022-11-24T16:00:16.708Z,2.63
2022-11-24T16:02:44.920Z,2.90
2022-11-24T16:05:13.510Z,3.23
2022-11-24T16:07:42.029Z,3.17
2022-11-24T16:10:16.548Z,2.40
2022-11-24T16:12:44.716Z,2.47
2022-11-24T16:15:12.912Z,2.80
2022-11-24T16:17:41.060Z,2.53
2022-11-24T16:20:09.578Z,3.13
2022-11-24T16:22:37.745Z,2.90
2022-11-24T16:25:06.144Z,2.70
2022-11-24T16:27:35.645Z,2.70
2022-11-24T16:30:03.824Z,2.50
2022-11-24T16:32:31.979Z,2.90
2022-11-24T16:35:00.173Z,2.43
2022-11-24T16:37:28.350Z,2.60
2022-11-24T16:39:57.474Z,2.60
2022-11-24T16:42:25.779Z,2.23
2022-11-24T16:44:55.351Z,2.80
2022-11-24T16:47:23.607Z,2.93
2022-11-24T16:49:51.778Z,2.93
2022-11-24T16:52:19.991Z,2.23
2022-11-24T16:54:48.494Z,2.57
2022-11-24T16:57:16.669Z,2.33
2022-11-24T16:59:45.904Z,2.00
2022-11-24T17:02:15.523Z,2.17
2022-11-24T17:04:46.469Z,2.40
2022-11-24T17:07:15.368Z,2.43
2022-11-24T17:09:43.578Z,2.63
2022-11-24T17:12:11.810Z,3.47
2022-11-24T17:14:40.038Z,2.90
2022-11-24T17:17:08.222Z,2.30
2022-11-24T17:19:37.936Z,2.87
2022-11-24T17:22:06.106Z,2.53
2022-11-24T17:24:34.404Z,2.70
2022-11-24T17:27:02.724Z,2.33
2022-11-24T17:29:31.006Z,2.37
2022-11-24T17:31:59.271Z,2.57
2022-11-24T17:34:27.555Z,2.50
2022-11-24T17:36:57.051Z,2.20
2022-11-24T17:39:26.554Z,2.37
2022-11-24T17:41:54.765Z,2.27
2022-11-24T17:44:23.049Z,2.40
2022-11-24T17:46:51.306Z,2.20
2022-11-24T17:49:21.056Z,1.73
2022-11-24T17:51:50.529Z,2.40
2022-11-24T17:57:08.469Z,1.93
2022-11-24T17:59:36.607Z,2.20
2022-11-24T18:02:04.824Z,2.73
2022-11-24T18:04:34.482Z,2.03
2022-11-24T18:07:02.893Z,2.30
2022-11-24T18:09:32.391Z,2.30
2022-11-24T18:12:00.529Z,2.10
2022-11-24T18:14:28.676Z,2.50
2022-11-24T18:16:56.933Z,2.13
2022-11-24T18:19:25.104Z,2.70
2022-11-24T18:21:53.242Z,2.43
2022-11-24T18:24:24.250Z,2.70
2022-11-24T18:26:53.967Z,2.17
2022-11-24T18:29:22.603Z,3.47
2022-11-24T18:31:50.858Z,2.40
2022-11-24T18:34:19.128Z,2.93
2022-11-24T18:36:50.459Z,3.57
2022-11-24T18:39:19.345Z,1.90
2022-11-24T18:41:48.132Z,2.40
2022-11-24T18:44:17.907Z,2.60
2022-11-24T18:46:46.066Z,3.37
2022-11-24T18:49:14.256Z,2.30
2022-11-24T18:51:42.439Z,2.77
2022-11-24T18:54:10.661Z,2.60
2022-11-24T18:56:39.075Z,2.57
2022-11-24T18:59:07.379Z,2.33
2022-11-24T19:01:37.575Z,2.73
2022-11-24T19:04:05.875Z,2.60
2022-11-24T19:06:35.394Z,2.80
2022-11-24T19:09:04.297Z,2.57
2022-11-24T19:11:33.716Z,2.70
2022-11-24T19:14:02.445Z,3.67
2022-11-24T19:16:30.871Z,2.30
2022-11-24T19:19:01.656Z,2.10
2022-11-24T19:21:30.359Z,2.30
2022-11-24T19:24:04.265Z,2.77
2022-11-24T19:26:34.687Z,3.13
2022-11-24T19:29:02.841Z,2.43
2022-11-24T19:31:31.031Z,2.60
2022-11-24T19:34:02.767Z,2.50
2022-11-24T19:36:30.937Z,2.50
2022-11-24T19:38:59.697Z,2.63
2022-11-24T19:41:28.610Z,3.43
2022-11-24T19:43:57.878Z,2.53
2022-11-24T19:46:27.410Z,2.37
2022-11-24T19:48:56.920Z,3.00
2022-11-24T19:51:27.260Z,2.57
2022-11-24T19:53:55.626Z,2.40
2022-11-24T19:56:24.250Z,2.53
2022-11-24T19:58:53.197Z,2.60
2022-11-24T20:01:22.758Z,2.70
2022-11-24T20:03:55.508Z,2.27
2022-11-24T20:06:23.649Z,2.30
2022-11-24T20:08:53.180Z,3.07
2022-11-24T20:11:22.036Z,2.43
2022-11-24T20:13:51.610Z,2.63
2022-11-24T20:16:21.029Z,2.37
2022-11-24T20:18:49.468Z,2.43
2022-11-24T20:21:18.453Z,2.30
2022-11-24T20:23:47.360Z,2.73
2022-11-24T20:26:19.449Z,2.37
2022-11-24T20:28:47.704Z,2.43
2022-11-24T20:31:17.134Z,2.60
2022-11-24T20:33:45.692Z,2.50
2022-11-24T20:36:14.693Z,2.30
2022-11-24T20:38:43.497Z,2.70
2022-11-24T20:41:12.735Z,2.43
2022-11-24T20:43:42.922Z,2.50
2022-11-24T20:46:12.824Z,3.37
2022-11-24T20:48:41.202Z,2.57
2022-11-24T20:51:10.357Z,2.37
2022-11-24T20:53:38.634Z,2.57
2022-11-24T20:56:07.927Z,2.40
2022-11-24T20:58:37.210Z,2.30
2022-11-24T21:01:07.511Z,2.57
2022-11-24T21:03:41.246Z,3.10
2022-11-24T21:06:11.731Z,2.60
2022-11-24T21:08:40.978Z,3.00
2022-11-24T21:11:10.312Z,3.27
2022-11-24T21:13:38.960Z,2.70
2022-11-24T21:16:14.782Z,2.60
2022-11-24T21:18:43.246Z,2.40
2022-11-24T21:21:11.407Z,2.80
2022-11-24T21:23:39.569Z,2.30
2022-11-24T21:26:13.016Z,2.37
2022-11-24T21:28:43.749Z,2.60
2022-11-24T21:31:13.736Z,4.67
2022-11-24T21:33:44.771Z,3.00
2022-11-24T21:36:14.510Z,3.20
2022-11-24T21:38:43.050Z,2.60
2022-11-24T21:41:11.898Z,2.60
2022-11-24T21:43:40.070Z,3.20
2022-11-24T21:46:09.366Z,2.77
2022-11-24T21:48:38.417Z,2.87
2022-11-24T21:51:08.859Z,2.40
2022-11-24T21:53:38.550Z,2.70
2022-11-24T21:56:09.546Z,2.13
2022-11-24T21:58:37.703Z,2.83
2022-11-24T22:01:08.310Z,2.57
2022-11-24T22:03:36.567Z,2.50
2022-11-24T22:06:05.053Z,2.53
2022-11-24T22:08:34.580Z,2.73
2022-11-24T22:11:03.057Z,2.77
2022-11-24T22:13:31.200Z,2.90
2022-11-24T22:16:03.063Z,3.23
2022-11-24T22:18:32.835Z,2.53
2022-11-24T22:21:02.650Z,2.87
2022-11-24T22:23:31.136Z,2.67
2022-11-24T22:26:04.706Z,2.80
2022-11-24T22:28:33.563Z,2.60
2022-11-24T22:31:04.773Z,2.67
2022-11-24T22:33:32.948Z,2.50
2022-11-24T22:36:01.568Z,2.33
2022-11-24T22:38:30.271Z,3.07
2022-11-24T22:41:02.052Z,2.20
2022-11-24T22:43:32.744Z,2.30
2022-11-24T22:46:04.270Z,2.80
2022-11-24T22:48:32.576Z,2.40
2022-11-24T22:51:07.078Z,3.13
2022-11-24T22:53:35.254Z,2.67
2022-11-24T22:56:03.741Z,2.60
2022-11-24T22:58:33.359Z,2.67
2022-11-24T23:01:05.196Z,2.60
2022-11-24T23:03:33.465Z,2.80
2022-11-24T23:06:01.691Z,3.20
2022-11-24T23:08:29.836Z,2.93
2022-11-24T23:11:01.208Z,2.80
2022-11-24T23:13:29.601Z,2.47
2022-11-24T23:16:02.992Z,2.47
2022-11-24T23:18:31.598Z,3.00
2022-11-24T23:21:05.505Z,2.13
2022-11-24T23:23:33.690Z,2.90
2022-11-24T23:26:02.219Z,2.83
2022-11-24T23:28:30.376Z,2.00
2022-11-24T23:31:03.883Z,3.43
2022-11-24T23:33:32.560Z,2.43
2022-11-24T23:36:02.422Z,3.17
2022-11-24T23:38:32.528Z,2.37
2022-11-24T23:41:04.329Z,2.27
2022-11-24T23:43:32.572Z,2.80
2022-11-24T23:46:04.643Z,2.60
2022-11-24T23:48:32.878Z,2.70
2022-11-24T23:51:04.808Z,3.30
2022-11-24T23:53:33.357Z,2.87
2022-11-24T23:56:01.535Z,3.37
2022-11-24T23:58:29.762Z,2.87
